Time;durP1;ratioP1;P1;durP2;ratioP2;P2;SDS_P1;SDS_P2;PMS_P1;PMS_P2;Temp;Humidity;BMP_temperature;BMP_pressure;BME280_temperature;BME280_humidity;BME280_pressure;Samples;Min_cycle;Max_cycle;Signal;HPM_P1;HPM_P2
2024/04/11 00:03:58;;;;;;;2.65;1.77;;;15.00;91.90;;;;;;10706147;21;20011;-71
2024/04/11 00:08:49;;;;;;;4.35;1.88;;;14.90;92.00;;;;;;10660905;26;20502;-66
2024/04/11 00:13:39;;;;;;;3.90;1.38;;;14.80;92.10;;;;;;10672695;26;19997;-66
2024/04/11 00:18:30;;;;;;;1.75;1.35;;;14.70;92.00;;;;;;10678272;26;20009;-68
2024/04/11 00:23:22;;;;;;;2.28;1.25;;;14.60;92.10;;;;;;10678757;26;20001;-67
2024/04/11 00:28:13;;;;;;;1.75;1.27;;;14.50;92.20;;;;;;10677688;26;19993;-67
2024/04/11 00:33:03;;;;;;;1.85;1.25;;;14.60;92.10;;;;;;10677989;26;20407;-67
2024/04/11 00:37:55;;;;;;;3.00;1.60;;;14.60;92.20;;;;;;10652625;26;20015;-66
2024/04/11 00:42:47;;;;;;;1.55;1.38;;;14.60;92.10;;;;;;10684775;26;20003;-66
2024/04/11 00:47:40;;;;;;;2.85;1.48;;;14.50;92.10;;;;;;10683866;26;20008;-67
2024/04/11 00:52:31;;;;;;;3.47;1.30;;;14.60;92.10;;;;;;10683531;26;20345;-66
2024/04/11 00:57:24;;;;;;;2.45;1.27;;;14.60;92.30;;;;;;10690000;26;20702;-66
2024/04/11 01:02:14;;;;;;;3.70;1.83;;;14.60;92.20;;;;;;10681222;26;20420;-67
2024/04/11 01:07:10;;;;;;;2.95;1.08;;;14.60;92.20;;;;;;10674893;26;20017;-67
2024/04/11 01:12:02;;;;;;;9.77;1.80;;;14.60;92.30;;;;;;10674697;26;20430;-68
2024/04/11 01:16:53;;;;;;;2.65;1.05;;;14.60;92.30;;;;;;10670499;26;20457;-68
2024/04/11 01:21:44;;;;;;;2.47;1.45;;;14.60;92.40;;;;;;10669084;26;20067;-67
2024/04/11 01:26:36;;;;;;;2.45;1.20;;;14.60;92.40;;;;;;10681365;26;20067;-66
2024/04/11 01:31:28;;;;;;;3.95;1.75;;;14.50;92.40;;;;;;10683085;26;20020;-66
2024/04/11 01:36:18;;;;;;;2.83;1.88;;;14.50;92.50;;;;;;10682595;26;20070;-66
2024/04/11 01:41:09;;;;;;;3.13;1.50;;;14.40;92.60;;;;;;10683123;26;20005;-66
2024/04/11 01:46:00;;;;;;;3.78;1.48;;;14.50;92.70;;;;;;10680368;26;20593;-67
2024/04/11 01:50:52;;;;;;;2.88;1.38;;;14.30;92.60;;;;;;10682309;26;20007;-68
2024/04/11 01:55:44;;;;;;;2.92;1.33;;;14.10;92.80;;;;;;10682235;26;20263;-66
2024/04/11 02:00:36;;;;;;;5.30;1.98;;;14.00;92.90;;;;;;10681711;26;20595;-66
2024/04/11 02:05:27;;;;;;;2.83;1.13;;;13.90;92.90;;;;;;10681569;26;20062;-67
2024/04/11 02:10:17;;;;;;;5.60;1.50;;;13.80;93.00;;;;;;10682615;26;20071;-67
2024/04/11 02:15:10;;;;;;;2.90;1.33;;;13.90;93.00;;;;;;10681336;26;20012;-69
2024/04/11 02:20:00;;;;;;;2.65;1.45;;;13.90;93.00;;;;;;10679034;26;20040;-66
2024/04/11 02:24:51;;;;;;;1.95;1.40;;;13.90;93.10;;;;;;10679770;26;20007;-67
2024/04/11 02:29:42;;;;;;;4.43;1.60;;;13.90;93.10;;;;;;10681541;26;20007;-66
2024/04/11 02:34:33;;;;;;;4.97;1.98;;;13.80;93.20;;;;;;10676233;26;20622;-65
2024/04/11 02:39:24;;;;;;;2.90;1.48;;;13.80;93.20;;;;;;10681096;26;20454;-67
2024/04/11 02:44:14;;;;;;;2.67;1.45;;;13.80;93.40;;;;;;10680428;26;20036;-66
2024/04/11 02:49:05;;;;;;;5.00;1.55;;;13.70;93.40;;;;;;10681036;26;20001;-67
2024/04/11 02:53:57;;;;;;;3.15;1.48;;;13.70;93.40;;;;;;10680914;26;20025;-67
2024/04/11 02:58:48;;;;;;;2.95;1.45;;;13.70;93.50;;;;;;10680174;26;20004;-66
2024/04/11 03:03:39;;;;;;;4.78;1.50;;;13.60;93.60;;;;;;10680688;26;20000;-66
2024/04/11 03:08:29;;;;;;;2.10;1.45;;;13.60;93.70;;;;;;10679846;26;20001;-66
2024/04/11 03:13:20;;;;;;;3.05;1.52;;;13.60;93.70;;;;;;10679136;26;20004;-66
2024/04/11 03:18:11;;;;;;;5.97;2.22;;;13.30;94.10;;;;;;10680445;26;19993;-66
2024/04/11 03:23:01;;;;;;;3.53;1.60;;;13.20;94.00;;;;;;10680254;26;19996;-65
2024/04/11 03:27:52;;;;;;;2.30;1.45;;;13.10;94.10;;;;;;10679280;26;19997;-66
2024/04/11 03:32:43;;;;;;;3.42;1.50;;;13.10;94.10;;;;;;10679848;26;19993;-65
2024/04/11 03:37:33;;;;;;;2.58;1.38;;;13.10;94.20;;;;;;10679436;26;20116;-66
2024/04/11 03:42:24;;;;;;;2.00;1.45;;;13.20;94.40;;;;;;10679813;26;20005;-66
2024/04/11 03:47:15;;;;;;;3.80;1.35;;;13.20;94.10;;;;;;10677626;26;20009;-67
2024/04/11 03:52:06;;;;;;;4.03;1.42;;;13.10;94.20;;;;;;10649918;26;20075;-69
2024/04/11 03:56:56;;;;;;;1.92;1.13;;;13.20;94.20;;;;;;10678861;26;20001;-67
2024/04/11 04:01:47;;;;;;;2.47;1.27;;;13.10;94.20;;;;;;10679274;26;20048;-67
2024/04/11 04:06:38;;;;;;;2.42;1.42;;;13.10;94.20;;;;;;10678395;26;20028;-70
2024/04/11 04:11:29;;;;;;;5.30;1.35;;;12.90;94.30;;;;;;10647825;26;20041;-65
2024/04/11 04:16:19;;;;;;;2.45;1.30;;;12.90;94.30;;;;;;10689188;26;20026;-70
2024/04/11 04:21:10;;;;;;;2.15;1.02;;;13.00;94.30;;;;;;10678326;26;20016;-66
2024/04/11 04:26:07;;;;;;;4.20;0.95;;;12.90;94.20;;;;;;10678114;26;20016;-67
2024/04/11 04:31:22;;;;;;;2.67;1.88;;;12.90;94.30;;;;;;10648035;26;20005;-66
2024/04/11 04:36:15;;;;;;;3.08;0.98;;;12.90;94.20;;;;;;10678082;26;20016;-66
2024/04/11 04:41:05;;;;;;;2.35;1.15;;;12.80;94.30;;;;;;10675683;26;20073;-67
2024/04/11 04:46:00;;;;;;;1.30;1.02;;;12.80;94.30;;;;;;10676812;26;20615;-68
2024/04/11 04:50:51;;;;;;;3.37;0.97;;;12.80;94.30;;;;;;10677533;26;20001;-67
2024/04/11 04:55:41;;;;;;;3.08;1.90;;;12.80;94.30;;;;;;10676627;26;20105;-66
2024/04/11 05:00:32;;;;;;;7.13;3.03;;;12.80;94.30;;;;;;10674340;26;20012;-67
2024/04/11 05:05:25;;;;;;;5.00;2.70;;;12.70;94.40;;;;;;10664431;26;20021;-67
2024/04/11 05:10:15;;;;;;;4.55;2.35;;;12.60;94.50;;;;;;10676838;26;20082;-66
2024/04/11 05:15:12;;;;;;;4.07;2.30;;;12.50;94.70;;;;;;10674423;26;20036;-68
2024/04/11 05:20:04;;;;;;;7.68;2.97;;;12.40;94.80;;;;;;10673246;26;20005;-71
2024/04/11 05:25:06;;;;;;;5.78;2.78;;;12.50;94.90;;;;;;10681685;26;20013;-68
2024/04/11 05:29:56;;;;;;;6.63;3.47;;;12.40;95.10;;;;;;10682421;26;20020;-70
2024/04/11 05:34:48;;;;;;;4.07;2.55;;;12.50;95.20;;;;;;10682363;26;20029;-67
2024/04/11 05:39:39;;;;;;;3.35;2.58;;;12.40;95.30;;;;;;10683170;26;20053;-71
2024/04/11 05:44:30;;;;;;;5.28;2.70;;;12.30;95.40;;;;;;10665302;26;20014;-72
2024/04/11 05:49:22;;;;;;;4.10;2.00;;;12.30;95.60;;;;;;10681217;26;20254;-66
2024/04/11 05:54:12;;;;;;;3.42;2.35;;;12.30;95.70;;;;;;10653010;26;20347;-66
2024/04/11 05:59:05;;;;;;;3.78;1.85;;;12.20;95.80;;;;;;10674988;26;19997;-67
2024/04/11 06:03:56;;;;;;;2.00;1.77;;;12.20;95.90;;;;;;10681579;26;20009;-67
2024/04/11 06:08:48;;;;;;;3.63;2.50;;;12.10;96.00;;;;;;10682106;26;20013;-66
2024/04/11 06:13:39;;;;;;;4.28;2.83;;;12.30;96.10;;;;;;10651026;26;19997;-70
2024/04/11 06:18:35;;;;;;;4.47;1.80;;;12.20;96.00;;;;;;10682266;26;20012;-67
2024/04/11 06:23:26;;;;;;;;;;;12.20;96.20;;;;;;10681765;26;20510;-67
2024/04/11 06:28:18;;;;;;;3.17;1.85;;;12.40;96.20;;;;;;10681384;26;19937;-67
2024/04/11 06:33:08;;;;;;;3.35;2.30;;;12.50;96.10;;;;;;10675524;26;20001;-68
2024/04/11 06:37:59;;;;;;;3.70;2.03;;;12.40;96.10;;;;;;10674948;26;20576;-67
2024/04/11 06:42:50;;;;;;;7.07;2.40;;;12.40;96.20;;;;;;10677002;26;20323;-67
2024/04/11 06:47:42;;;;;;;3.28;2.10;;;12.50;96.20;;;;;;10677797;26;20033;-66
2024/04/11 06:52:33;;;;;;;6.30;2.65;;;12.60;96.30;;;;;;10678909;26;20013;-68
2024/04/11 06:57:27;;;;;;;3.92;2.42;;;12.60;96.20;;;;;;10668913;26;20052;-72
2024/04/11 07:02:18;;;;;;;3.15;2.30;;;12.60;96.30;;;;;;10674489;26;20001;-71
2024/04/11 07:07:08;;;;;;;4.78;2.83;;;12.50;96.40;;;;;;10645387;26;20512;-70
2024/04/11 07:11:59;;;;;;;4.05;2.08;;;12.70;96.40;;;;;;10677675;26;20005;-66
2024/04/11 07:16:56;;;;;;;5.35;2.50;;;12.80;96.30;;;;;;10669494;26;20442;-66
2024/04/11 07:21:48;;;;;;;4.72;2.55;;;13.00;96.30;;;;;;10639055;26;20038;-68
2024/04/11 07:26:40;;;;;;;5.63;2.42;;;12.90;96.20;;;;;;10668628;26;20001;-74
2024/04/11 07:31:36;;;;;;;7.47;2.35;;;13.10;96.20;;;;;;10679729;26;20832;-69
2024/04/11 07:36:28;;;;;;;4.05;1.95;;;13.10;96.20;;;;;;10679424;26;20051;-69
2024/04/11 07:41:23;;;;;;;2.10;1.90;;;13.10;96.10;;;;;;10679412;26;20329;-67
2024/04/11 07:46:14;;;;;;;;;;;13.20;96.10;;;;;;10676422;26;20016;-67
2024/04/11 07:51:13;;;;;;;3.40;1.80;;;13.30;96.00;;;;;;10679057;26;19933;-67
2024/04/11 07:56:04;;;;;;;3.47;1.45;;;13.20;95.80;;;;;;10677935;26;20062;-71
2024/04/11 08:00:55;;;;;;;2.90;1.13;;;13.30;95.80;;;;;;10676651;26;20366;-67
2024/04/11 08:05:49;;;;;;;1.60;1.48;;;13.30;95.60;;;;;;10676331;26;20001;-71
2024/04/11 08:10:40;;;;;;;1.83;1.23;;;13.40;95.60;;;;;;10674850;26;20507;-72
2024/04/11 08:15:31;;;;;;;2.25;1.23;;;13.50;95.40;;;;;;10643819;26;20013;-68
2024/04/11 08:20:21;;;;;;;2.92;1.50;;;13.60;95.40;;;;;;10659059;26;20021;-68
2024/04/11 08:25:12;;;;;;;4.05;1.60;;;13.70;95.30;;;;;;10666743;26;20012;-68
2024/04/11 08:30:06;;;;;;;4.68;2.38;;;13.80;95.20;;;;;;10671889;26;19997;-66
2024/04/11 08:34:56;;;;;;;4.13;1.75;;;13.90;95.10;;;;;;10676702;26;20008;-70
2024/04/11 08:39:47;;;;;;;2.15;1.50;;;13.90;95.00;;;;;;10668745;26;20015;-67
2024/04/11 08:44:41;;;;;;;3.38;1.52;;;13.90;94.90;;;;;;10671076;26;20428;-66
2024/04/11 08:49:31;;;;;;;2.45;1.83;;;14.00;94.90;;;;;;10674447;26;20346;-66
2024/04/11 08:54:24;;;;;;;4.70;1.42;;;14.00;94.90;;;;;;10666530;26;20008;-68
2024/04/11 08:59:16;;;;;;;3.78;1.60;;;14.00;94.80;;;;;;10681433;26;20082;-68
2024/04/11 09:04:08;;;;;;;4.28;1.88;;;14.00;94.70;;;;;;10681882;26;20000;-73
2024/04/11 09:09:07;;;;;;;2.67;1.45;;;14.00;94.70;;;;;;10682562;26;20011;-70
2024/04/11 09:14:00;;;;;;;4.60;1.80;;;14.10;94.60;;;;;;10684376;26;20415;-68
2024/04/11 09:19:12;;;;;;;4.30;1.80;;;14.20;94.60;;;;;;10651416;26;20001;-70
2024/04/11 09:24:10;;;;;;;5.13;1.85;;;14.20;94.60;;;;;;10651745;26;20504;-67
2024/04/11 09:29:03;;;;;;;3.70;1.65;;;14.30;94.60;;;;;;10650952;26;20019;-69
2024/04/11 09:33:57;;;;;;;2.83;1.40;;;14.30;94.50;;;;;;10680272;26;20001;-68
2024/04/11 09:38:53;;;;;;;2.45;1.40;;;14.40;94.50;;;;;;10672311;26;20011;-67
2024/04/11 09:43:45;;;;;;;3.15;1.63;;;14.50;94.40;;;;;;10667710;26;19997;-68
2024/04/11 09:48:41;;;;;;;3.50;1.50;;;14.60;94.30;;;;;;10627153;26;20509;-72
2024/04/11 09:53:36;;;;;;;2.35;1.10;;;14.60;94.30;;;;;;10666144;26;20001;-67
2024/04/11 09:58:28;;;;;;;1.90;1.50;;;14.70;94.20;;;;;;10651856;26;20647;-67
2024/04/11 10:03:19;;;;;;;2.40;1.10;;;14.80;94.10;;;;;;10655269;26;20004;-68
2024/04/11 10:08:23;;;;;;;4.53;1.40;;;14.80;94.10;;;;;;10667518;26;20019;-72
2024/04/11 10:13:14;;;;;;;2.05;1.13;;;14.90;94.00;;;;;;10667093;26;20013;-69
2024/04/11 10:18:09;;;;;;;2.78;1.88;;;15.00;93.90;;;;;;10663598;26;20085;-68
2024/04/11 10:23:03;;;;;;;1.43;1.07;;;15.10;93.80;;;;;;10663754;26;20342;-67
2024/04/11 10:27:56;;;;;;;2.90;1.50;;;15.10;93.70;;;;;;10678819;26;20250;-67
2024/04/11 10:32:47;;;;;;;3.03;1.30;;;15.20;93.60;;;;;;10657679;26;20008;-68
2024/04/11 10:37:41;;;;;;;2.75;1.35;;;15.30;93.50;;;;;;10662793;26;20032;-66
2024/04/11 10:42:39;;;;;;;2.78;1.08;;;15.30;93.40;;;;;;10665626;26;20001;-68
2024/04/11 10:47:30;;;;;;;1.83;1.00;;;15.40;93.30;;;;;;10648503;26;20081;-66
2024/04/11 10:52:21;;;;;;;1.17;0.80;;;15.60;93.30;;;;;;10650002;26;20085;-68
2024/04/11 10:57:13;;;;;;;2.78;1.00;;;15.60;93.10;;;;;;10644381;26;20017;-67
2024/04/11 11:02:10;;;;;;;3.33;0.75;;;15.80;93.00;;;;;;10670173;26;20005;-67
2024/04/11 11:07:10;;;;;;;3.83;1.88;;;15.80;92.80;;;;;;10679292;26;20019;-67
2024/04/11 11:12:02;;;;;;;1.35;0.85;;;15.90;92.80;;;;;;10678102;26;19997;-67
2024/04/11 11:16:57;;;;;;;2.50;1.20;;;16.10;92.70;;;;;;10649092;26;20001;-67
2024/04/11 11:21:59;;;;;;;3.17;1.13;;;16.10;92.60;;;;;;10659335;26;19997;-68
2024/04/11 11:26:58;;;;;;;2.95;1.60;;;16.30;92.50;;;;;;10675556;26;19997;-67
2024/04/11 11:31:52;;;;;;;2.50;1.27;;;16.40;92.40;;;;;;10678185;26;20009;-67
2024/04/11 11:36:44;;;;;;;2.53;0.80;;;16.50;92.20;;;;;;10669771;26;20013;-73
2024/04/11 11:41:37;;;;;;;2.95;1.15;;;16.60;92.20;;;;;;10629700;26;20005;-73
2024/04/11 11:46:37;;;;;;;2.38;0.90;;;16.70;92.10;;;;;;10648236;26;20367;-69
2024/04/11 11:51:29;;;;;;;2.72;0.88;;;16.60;92.00;;;;;;10674340;26;20040;-70
2024/04/11 11:56:22;;;;;;;2.00;0.88;;;16.70;92.00;;;;;;10670271;26;20004;-67
2024/04/11 12:06:22;;;;;;;1.25;0.85;;;16.60;91.80;;;;;;10675351;26;20019;-69
2024/04/11 12:11:14;;;;;;;1.35;0.65;;;16.70;91.70;;;;;;10678229;26;19996;-69
2024/04/11 12:16:05;;;;;;;1.38;0.70;;;16.80;91.60;;;;;;10673995;26;20040;-69
2024/04/11 12:20:59;;;;;;;1.95;1.10;;;16.80;91.60;;;;;;10642060;26;20249;-69
2024/04/11 12:25:50;;;;;;;3.17;0.93;;;16.90;91.50;;;;;;10673649;26;20146;-68
2024/04/11 12:30:41;;;;;;;2.78;1.10;;;17.10;91.50;;;;;;10673985;26;20040;-68
2024/04/11 12:35:41;;;;;;;1.90;1.42;;;17.20;91.40;;;;;;10676046;26;20015;-68
2024/04/11 12:40:39;;;;;;;1.55;0.80;;;17.30;91.40;;;;;;10675536;26;20447;-69
2024/04/11 12:45:31;;;;;;;3.13;1.38;;;17.30;91.30;;;;;;10638608;26;20055;-70
2024/04/11 12:50:28;;;;;;;1.23;0.82;;;17.30;91.30;;;;;;10627868;26;19998;-69
2024/04/11 12:55:24;;;;;;;2.10;1.25;;;17.40;91.20;;;;;;10613011;26;20005;-67
2024/04/11 13:05:24;;;;;;;1.55;0.90;;;17.50;91.10;;;;;;10641523;26;20008;-67
2024/04/11 13:10:15;;;;;;;2.03;1.02;;;17.70;91.00;;;;;;10657662;26;20016;-67
2024/04/11 13:15:09;;;;;;;3.38;1.77;;;17.80;91.00;;;;;;10634044;26;20001;-66
2024/04/11 13:20:11;;;;;;;3.75;1.10;;;17.80;90.90;;;;;;10673878;26;20005;-68
2024/04/11 13:25:10;;;;;;;2.72;1.25;;;17.90;90.80;;;;;;10642227;26;19997;-66
2024/04/11 13:30:11;;;;;;;3.47;0.98;;;18.10;90.80;;;;;;10673903;26;19997;-69
2024/04/11 13:35:06;;;;;;;0.80;0.65;;;18.20;90.70;;;;;;10667730;26;20012;-70
2024/04/11 13:45:10;;;;;;;3.58;0.88;;;18.30;90.50;;;;;;10679590;26;20090;-72
2024/04/11 13:50:21;;;;;;;2.33;1.10;;;18.40;90.50;;;;;;10648742;26;20000;-72
2024/04/11 13:55:18;;;;;;;4.78;0.98;;;18.60;90.40;;;;;;10693679;26;20009;-72
2024/04/11 14:00:10;;;;;;;2.67;0.95;;;18.70;90.30;;;;;;10685069;26;20001;-69
2024/04/11 14:05:09;;;;;;;2.65;0.95;;;18.80;90.20;;;;;;10679573;26;20012;-68
2024/04/11 14:10:00;;;;;;;2.30;0.90;;;19.00;90.10;;;;;;10668215;26;20029;-72
2024/04/11 14:14:54;;;;;;;3.60;1.88;;;19.40;89.90;;;;;;10673737;26;20007;-72
2024/04/11 14:19:52;;;;;;;2.35;0.98;;;19.70;89.60;;;;;;10681291;26;20408;-73
2024/04/11 14:24:58;;;;;;;3.33;0.93;;;19.90;89.40;;;;;;10679984;26;20520;-72
2024/04/11 14:29:49;;;;;;;1.60;1.00;;;20.20;89.10;;;;;;10635425;26;20021;-72
2024/04/11 14:39:49;;;;;;;2.80;1.00;;;20.90;88.50;;;;;;10667429;26;20538;-73
2024/04/11 14:44:44;;;;;;;6.82;1.15;;;20.70;88.20;;;;;;10663990;26;20007;-75
2024/04/11 14:49:44;;;;;;;;;;;21.10;87.90;;;;;;10639325;26;20156;-73
2024/04/11 14:54:35;;;;;;;1.17;1.05;;;21.30;87.10;;;;;;10675725;26;20574;-73
2024/04/11 14:59:30;;;;;;;3.63;1.30;;;20.90;87.90;;;;;;10679969;26;20009;-73
2024/04/11 15:04:21;;;;;;;1.63;1.20;;;20.80;87.80;;;;;;10677843;26;20003;-74
2024/04/11 15:09:28;;;;;;;3.95;0.93;;;21.60;87.20;;;;;;10674573;26;19996;-73
2024/04/11 15:14:23;;;;;;;2.53;1.00;;;22.20;86.70;;;;;;10667951;26;19997;-71
2024/04/11 15:19:15;;;;;;;2.80;1.20;;;22.30;86.40;;;;;;10653128;26;20112;-71
2024/04/11 15:24:06;;;;;;;3.33;1.10;;;22.20;86.40;;;;;;10676128;26;20016;-71
2024/04/11 15:29:01;;;;;;;1.90;0.77;;;22.50;85.90;;;;;;10634127;26;20008;-69
2024/04/11 15:33:54;;;;;;;1.48;0.93;;;23.00;85.60;;;;;;10677551;26;20338;-69
2024/04/11 15:38:49;;;;;;;1.98;0.80;;;22.70;85.20;;;;;;10677082;26;20442;-71
2024/04/11 15:43:39;;;;;;;2.72;0.98;;;21.90;85.50;;;;;;10640722;26;20021;-70
2024/04/11 15:48:35;;;;;;;1.90;0.68;;;21.40;85.70;;;;;;10674162;26;20013;-71
2024/04/11 15:53:31;;;;;;;2.58;1.02;;;21.00;85.70;;;;;;10641473;26;20019;-68
2024/04/11 15:58:24;;;;;;;2.67;0.90;;;20.80;85.80;;;;;;10675209;26;20071;-69
2024/04/11 16:03:20;;;;;;;1.17;0.98;;;20.80;85.60;;;;;;10667557;26;20021;-71
2024/04/11 16:08:14;;;;;;;2.53;0.77;;;20.90;85.50;;;;;;10668870;26;20024;-70
2024/04/11 16:13:17;;;;;;;2.08;1.00;;;21.10;85.30;;;;;;10665815;26;20055;-69
2024/04/11 16:18:09;;;;;;;2.40;1.08;;;21.40;85.10;;;;;;10678706;26;20015;-75
2024/04/11 16:23:00;;;;;;;6.03;1.17;;;22.30;84.60;;;;;;10683776;26;20013;-69
2024/04/11 16:27:57;;;;;;;3.55;1.27;;;23.00;84.00;;;;;;10674970;26;20371;-69
2024/04/11 16:32:48;;;;;;;3.92;1.20;;;23.10;83.70;;;;;;10671411;26;20038;-72
2024/04/11 16:37:39;;;;;;;1.95;1.00;;;23.20;83.70;;;;;;10666323;26;19997;-73
2024/04/11 16:42:37;;;;;;;1.58;0.88;;;23.90;83.40;;;;;;10663090;26;20016;-71
2024/04/11 16:47:32;;;;;;;6.20;1.35;;;24.10;83.00;;;;;;10671090;26;20002;-70
2024/04/11 16:52:24;;;;;;;3.60;1.05;;;23.80;83.00;;;;;;10670070;26;20005;-68
2024/04/11 16:57:15;;;;;;;2.53;0.95;;;23.60;82.80;;;;;;10677429;26;19993;-69
2024/04/11 17:02:09;;;;;;;2.22;1.08;;;22.90;82.90;;;;;;10688881;26;20529;-69
2024/04/11 17:07:50;;;;;;;7.05;1.10;;;22.60;82.90;;;;;;10680979;26;20121;-67
2024/04/11 17:12:16;;;;;;;2.38;1.02;;;22.20;82.90;;;;;;10663679;26;20056;-67
2024/04/11 17:17:16;;;;;;;2.47;1.40;;;21.80;82.90;;;;;;10683417;26;20410;-68
2024/04/11 17:22:07;;;;;;;3.80;1.17;;;21.50;82.90;;;;;;10691381;26;20005;-66
2024/04/11 17:26:58;;;;;;;5.30;1.67;;;21.30;82.90;;;;;;10690967;26;20005;-71
2024/04/11 17:31:53;;;;;;;2.20;1.00;;;21.10;82.80;;;;;;10690014;26;20004;-71
2024/04/11 17:36:45;;;;;;;2.80;1.27;;;21.00;82.80;;;;;;10688587;26;20097;-68
2024/04/11 17:41:57;;;;;;;3.38;1.35;;;20.90;82.90;;;;;;10691790;26;20085;-68
2024/04/11 17:51:54;;;;;;;5.43;1.10;;;20.80;83.00;;;;;;10691598;26;20290;-67
2024/04/11 17:56:45;;;;;;;4.95;1.40;;;20.60;83.20;;;;;;10688769;26;20012;-70
2024/04/11 18:01:36;;;;;;;4.55;2.30;;;20.60;83.20;;;;;;10687177;26;20012;-66
2024/04/11 18:06:27;;;;;;;3.63;1.70;;;20.50;83.30;;;;;;10688439;26;20429;-69
2024/04/11 18:11:19;;;;;;;1.75;1.40;;;20.40;83.30;;;;;;10689169;26;20001;-66
2024/04/11 18:16:10;;;;;;;2.55;1.63;;;20.40;83.40;;;;;;10663171;26;20001;-65
2024/04/11 18:21:03;;;;;;;3.35;1.95;;;20.30;83.40;;;;;;10690952;26;20001;-67
2024/04/11 18:25:56;;;;;;;3.47;1.55;;;20.20;83.40;;;;;;10688751;26;20187;-66
2024/04/11 18:30:53;;;;;;;3.60;1.67;;;20.20;83.50;;;;;;10697704;26;20003;-66
2024/04/11 18:35:47;;;;;;;2.03;1.52;;;20.10;83.60;;;;;;10688395;26;20042;-68
2024/04/11 18:40:41;;;;;;;6.78;1.75;;;20.00;83.50;;;;;;10672705;26;20387;-68
2024/04/11 18:45:35;;;;;;;4.20;1.75;;;20.00;83.50;;;;;;10665432;26;20020;-65
2024/04/11 18:50:29;;;;;;;3.65;1.88;;;20.00;83.60;;;;;;10686499;26;20004;-65
2024/04/11 18:55:27;;;;;;;3.40;1.70;;;19.90;83.70;;;;;;10685896;26;20080;-66
2024/04/11 19:00:20;;;;;;;4.20;1.50;;;19.80;83.70;;;;;;10688986;26;20016;-66
2024/04/11 19:05:11;;;;;;;5.07;1.50;;;19.80;83.80;;;;;;10687277;26;20017;-69
2024/04/11 19:10:04;;;;;;;3.13;1.88;;;19.80;83.80;;;;;;10687458;26;20015;-71
2024/04/11 19:14:58;;;;;;;3.97;1.80;;;19.80;83.80;;;;;;10655688;26;20173;-70
2024/04/11 19:19:56;;;;;;;4.90;2.00;;;19.70;83.70;;;;;;10686090;26;20001;-66
2024/04/11 19:24:52;;;;;;;8.35;2.47;;;19.70;83.80;;;;;;10687548;26;20100;-67
2024/04/11 19:29:44;;;;;;;6.72;2.42;;;19.60;83.80;;;;;;10681053;26;20104;-67
2024/04/11 19:34:40;;;;;;;7.25;2.53;;;19.60;84.00;;;;;;10683233;26;20012;-66
2024/04/11 19:39:42;;;;;;;7.72;3.30;;;19.50;84.10;;;;;;10684184;26;20016;-68
2024/04/11 19:44:33;;;;;;;8.85;4.10;;;19.40;84.30;;;;;;10657700;26;19998;-66
2024/04/11 19:49:28;;;;;;;8.20;3.85;;;19.50;84.30;;;;;;10682637;26;19993;-64
2024/04/11 19:54:21;;;;;;;;;;;19.40;84.20;;;;;;10683520;26;20001;-65
2024/04/11 19:59:12;;;;;;;4.70;2.53;;;19.40;84.10;;;;;;10685649;26;19954;-69
2024/04/11 20:04:14;;;;;;;3.97;1.75;;;19.40;84.30;;;;;;10684507;26;20111;-67
2024/04/11 20:09:12;;;;;;;4.13;1.85;;;19.20;84.20;;;;;;10685662;26;20031;-67
2024/04/11 20:18:56;;;;;;;6.90;2.90;;;19.10;84.50;;;;;;10686430;26;20016;-69
2024/04/11 20:23:47;;;;;;;5.88;2.28;;;18.90;84.80;;;;;;10657181;26;20692;-68
2024/04/11 20:28:38;;;;;;;7.60;1.88;;;18.80;84.90;;;;;;10687490;26;20016;-70
2024/04/11 20:33:31;;;;;;;4.22;2.22;;;18.60;85.30;;;;;;10683066;26;20037;-71
2024/04/11 20:38:21;;;;;;;8.00;2.80;;;18.70;85.40;;;;;;10680570;26;20011;-71
2024/04/11 20:43:36;;;;;;;4.70;1.83;;;18.50;85.60;;;;;;10672004;26;20001;-67
2024/04/11 21:34:34;;;;;;;2.60;1.33;;;18.20;88.10;;;;;;10678226;26;20143;-66
2024/04/11 21:39:29;;;;;;;3.83;1.92;;;18.00;88.10;;;;;;10686963;26;20075;-66
2024/04/11 21:44:23;;;;;;;2.55;1.50;;;17.90;88.40;;;;;;10686925;26;20128;-68
2024/04/11 21:49:14;;;;;;;2.30;1.83;;;17.90;88.60;;;;;;10686370;26;20009;-66
2024/04/11 21:54:08;;;;;;;3.35;1.90;;;17.90;88.70;;;;;;10668528;26;20371;-66
2024/04/11 21:59:00;;;;;;;3.78;2.05;;;17.90;88.90;;;;;;10658297;26;20005;-64
2024/04/11 22:03:51;;;;;;;5.97;2.08;;;17.90;89.00;;;;;;10663257;26;20074;-65
2024/04/11 22:08:45;;;;;;;3.45;1.77;;;17.90;89.20;;;;;;10664873;26;20030;-64
2024/04/11 22:13:38;;;;;;;3.63;1.42;;;17.80;89.30;;;;;;10629410;26;20005;-66
2024/04/11 22:18:31;;;;;;;2.95;1.27;;;17.90;89.40;;;;;;10666781;26;20015;-66
2024/04/11 22:23:26;;;;;;;3.30;1.63;;;17.80;89.50;;;;;;10662403;26;20001;-68
2024/04/11 22:28:21;;;;;;;4.00;1.90;;;17.60;89.80;;;;;;10660047;26;20082;-66
2024/04/11 22:33:17;;;;;;;4.68;2.22;;;17.50;90.00;;;;;;10665452;26;20055;-65
2024/04/11 22:38:08;;;;;;;7.57;2.47;;;17.50;90.00;;;;;;10628462;26;20001;-65
2024/04/11 22:42:59;;;;;;;2.53;2.08;;;17.40;90.20;;;;;;10668120;26;20614;-65
2024/04/11 22:47:50;;;;;;;3.78;2.38;;;17.30;90.30;;;;;;10681147;26;20007;-64
2024/04/11 22:52:42;;;;;;;2.78;2.10;;;17.30;90.40;;;;;;10682345;26;19997;-66
2024/04/11 22:57:37;;;;;;;3.42;2.90;;;17.30;90.40;;;;;;10652121;26;19993;-65
2024/04/11 23:02:30;;;;;;;;;;;17.20;90.60;;;;;;10681075;26;20079;-65
2024/04/11 23:07:39;;;;;;;6.20;3.38;;;17.10;90.90;;;;;;10668805;26;19933;-65
2024/04/11 23:12:39;;;;;;;6.72;3.63;;;17.20;90.70;;;;;;10681923;26;20075;-65
2024/04/11 23:17:36;;;;;;;6.65;3.67;;;17.00;90.90;;;;;;10680278;26;20012;-65
2024/04/11 23:22:32;;;;;;;3.50;2.22;;;17.00;91.00;;;;;;10678904;26;19993;-69
2024/04/11 23:27:30;;;;;;;4.53;3.00;;;16.90;91.00;;;;;;10680906;26;19989;-69
2024/04/11 23:32:21;;;;;;;5.13;2.92;;;16.90;91.10;;;;;;10679781;26;20060;-65
2024/04/11 23:37:18;;;;;;;5.97;2.97;;;16.80;91.20;;;;;;10679983;26;20050;-64
2024/04/11 23:42:09;;;;;;;4.60;3.00;;;16.80;91.30;;;;;;10686127;26;20008;-67
2024/04/11 23:47:00;;;;;;;6.20;2.53;;;16.80;91.40;;;;;;10680330;26;20032;-65
2024/04/11 23:51:51;;;;;;;5.70;3.55;;;16.80;91.50;;;;;;10667518;26;20492;-65
2024/04/11 23:56:42;;;;;;;5.13;4.13;;;16.80;91.60;;;;;;10679294;26;20528;-64
